createdAt,value
2019-02-27T00:00:09.178Z,99.90
2019-02-27T00:02:40.246Z,99.90
2019-02-27T00:05:09.555Z,99.90
2019-02-27T00:07:38.596Z,99.90
2019-02-27T00:10:09.727Z,99.90
2019-02-27T00:12:38.944Z,99.90
2019-02-27T00:15:08.450Z,99.90
2019-02-27T00:17:37.644Z,99.90
2019-02-27T00:20:07.114Z,99.90
2019-02-27T00:22:36.250Z,99.90
2019-02-27T00:25:06.064Z,99.90
2019-02-27T00:27:35.452Z,99.90
2019-02-27T00:30:05.868Z,99.90
2019-02-27T00:32:35.461Z,99.90
2019-02-27T00:35:07.203Z,99.90
2019-02-27T00:37:36.393Z,99.90
2019-02-27T00:40:06.291Z,99.90
2019-02-27T00:42:35.840Z,99.90
2019-02-27T00:45:07.045Z,99.90
2019-02-27T00:47:36.478Z,99.90
2019-02-27T00:50:06.824Z,99.90
2019-02-27T00:52:36.040Z,99.90
2019-02-27T00:55:05.728Z,99.90
2019-02-27T00:57:34.860Z,99.90
2019-02-27T01:00:06.592Z,99.90
2019-02-27T01:02:35.262Z,99.90
2019-02-27T01:05:06.223Z,99.90
2019-02-27T01:07:36.612Z,99.90
2019-02-27T01:10:06.632Z,99.90
2019-02-27T01:12:36.029Z,99.90
2019-02-27T01:15:07.987Z,99.90
2019-02-27T01:17:36.529Z,99.90
2019-02-27T01:20:06.365Z,99.90
2019-02-27T01:22:35.528Z,99.90
2019-02-27T01:25:05.729Z,99.90
2019-02-27T01:27:37.928Z,99.90
2019-02-27T01:30:07.132Z,99.90
2019-02-27T01:32:36.580Z,99.90
2019-02-27T01:35:06.495Z,99.90
2019-02-27T01:37:35.640Z,99.90
2019-02-27T01:40:05.912Z,99.90
2019-02-27T01:42:35.246Z,99.90
2019-02-27T01:45:05.021Z,99.90
2019-02-27T01:47:36.136Z,99.90
2019-02-27T01:50:27.292Z,99.90
2019-02-27T01:52:57.760Z,99.90
2019-02-27T01:55:27.237Z,99.90
2019-02-27T01:57:57.833Z,99.90
2019-02-27T02:00:27.253Z,99.90
2019-02-27T02:02:56.477Z,99.90
2019-02-27T02:05:28.519Z,99.90
2019-02-27T02:07:57.689Z,99.90
2019-02-27T02:10:28.309Z,99.90
2019-02-27T02:13:14.923Z,99.90
2019-02-27T02:16:18.906Z,99.90
2019-02-27T02:19:22.019Z,99.90
2019-02-27T02:22:16.377Z,99.90
2019-02-27T02:25:04.651Z,99.90
2019-02-27T02:28:14.753Z,99.90
2019-02-27T02:30:58.228Z,99.90
2019-02-27T02:33:37.951Z,99.90
2019-02-27T02:36:52.629Z,99.90
2019-02-27T02:39:59.976Z,99.90
2019-02-27T02:43:29.264Z,99.90
2019-02-27T02:46:08.666Z,99.90
2019-02-27T02:49:08.018Z,99.90
2019-02-27T02:51:50.616Z,99.90
2019-02-27T02:54:37.476Z,99.90
2019-02-27T02:57:35.923Z,99.90
2019-02-27T03:00:34.727Z,99.90
2019-02-27T03:03:23.069Z,99.90
2019-02-27T03:06:17.592Z,99.90
2019-02-27T03:09:21.557Z,99.90
2019-02-27T03:12:29.571Z,99.90
2019-02-27T03:15:17.552Z,99.90
2019-02-27T03:18:40.513Z,99.90
2019-02-27T03:22:03.225Z,99.90
2019-02-27T03:24:42.084Z,99.90
2019-02-27T03:27:29.586Z,99.90
2019-02-27T03:30:37.549Z,99.90
2019-02-27T03:33:46.121Z,99.90
2019-02-27T03:36:39.034Z,99.90
2019-02-27T03:39:35.018Z,99.90
2019-02-27T03:42:34.155Z,99.90
2019-02-27T03:45:38.772Z,99.90
2019-02-27T03:48:27.746Z,99.90
2019-02-27T03:51:36.024Z,99.90
2019-02-27T03:54:44.136Z,99.90
2019-02-27T03:57:29.969Z,99.90
2019-02-27T04:00:34.362Z,99.90
2019-02-27T04:03:22.441Z,99.90
2019-02-27T04:06:46.341Z,99.90
2019-02-27T04:09:18.646Z,99.90
2019-02-27T04:11:47.084Z,99.90
2019-02-27T04:14:29.961Z,99.90
2019-02-27T04:17:05.402Z,99.90
2019-02-27T04:19:30.115Z,99.90
2019-02-27T04:22:01.105Z,99.90
2019-02-27T04:24:30.388Z,99.90
2019-02-27T04:26:59.712Z,99.90
2019-02-27T04:29:28.746Z,99.90
2019-02-27T04:31:57.925Z,99.90
2019-02-27T04:34:27.361Z,99.90
2019-02-27T04:36:56.952Z,99.90
2019-02-27T04:39:26.030Z,99.90
2019-02-27T04:41:55.107Z,99.90
2019-02-27T04:44:24.212Z,99.90
2019-02-27T04:46:55.081Z,99.90
2019-02-27T04:49:25.508Z,99.90
2019-02-27T04:51:54.696Z,99.90
2019-02-27T04:54:23.930Z,99.90
2019-02-27T04:56:55.097Z,99.90
2019-02-27T04:59:23.926Z,99.90
2019-02-27T05:01:53.284Z,99.90
2019-02-27T05:04:22.498Z,99.90
2019-02-27T05:06:51.680Z,99.90
2019-02-27T05:09:25.572Z,99.90
2019-02-27T05:11:54.673Z,99.90
2019-02-27T05:14:24.878Z,99.90
2019-02-27T05:16:55.080Z,99.90
2019-02-27T05:19:27.476Z,99.90
2019-02-27T05:21:56.807Z,99.90
2019-02-27T05:24:25.884Z,99.90
2019-02-27T05:26:55.336Z,99.90
2019-02-27T05:29:24.495Z,99.90
2019-02-27T05:31:53.997Z,99.90
2019-02-27T05:34:23.727Z,99.90
2019-02-27T05:36:53.209Z,99.90
2019-02-27T05:39:22.814Z,99.90
2019-02-27T05:41:51.966Z,99.90
2019-02-27T05:44:22.354Z,99.90
2019-02-27T05:46:51.584Z,99.90
2019-02-27T05:49:20.839Z,99.90
2019-02-27T05:51:50.421Z,99.90
2019-02-27T05:54:19.913Z,99.90
2019-02-27T05:56:49.748Z,99.90
2019-02-27T05:59:19.630Z,99.90
2019-02-27T06:01:49.040Z,99.90
2019-02-27T06:04:18.876Z,99.90
2019-02-27T06:06:48.066Z,99.90
2019-02-27T06:09:17.472Z,99.90
2019-02-27T06:11:47.192Z,99.90
2019-02-27T06:14:16.393Z,99.90
2019-02-27T06:16:48.712Z,99.90
2019-02-27T06:19:17.774Z,99.90
2019-02-27T06:21:47.457Z,99.90
2019-02-27T06:24:18.872Z,99.90
2019-02-27T06:26:48.125Z,99.90
2019-02-27T06:29:17.326Z,99.90
2019-02-27T06:31:47.703Z,99.90
2019-02-27T06:34:17.066Z,99.90
2019-02-27T06:36:46.412Z,99.90
2019-02-27T06:39:15.506Z,99.90
2019-02-27T06:41:47.247Z,99.90
2019-02-27T06:44:32.832Z,99.90
2019-02-27T06:47:07.214Z,99.90
2019-02-27T06:49:36.421Z,99.90
2019-02-27T06:52:08.952Z,99.90
2019-02-27T06:54:37.772Z,99.90
2019-02-27T06:57:07.776Z,99.90
2019-02-27T06:59:37.836Z,99.90
2019-02-27T07:02:06.980Z,99.90
2019-02-27T07:04:39.645Z,99.90
2019-02-27T07:07:07.363Z,99.90
2019-02-27T07:09:36.612Z,99.90
2019-02-27T07:12:07.236Z,99.90
2019-02-27T07:14:39.239Z,99.90
2019-02-27T07:17:07.613Z,99.90
2019-02-27T07:19:36.656Z,99.90
2019-02-27T07:22:12.529Z,99.90
2019-02-27T07:24:40.888Z,99.90
2019-02-27T07:27:14.672Z,99.90
2019-02-27T07:29:44.156Z,99.90
2019-02-27T07:32:13.344Z,99.90
2019-02-27T07:34:42.929Z,99.90
2019-02-27T07:37:12.943Z,99.90
2019-02-27T07:39:43.396Z,99.90
2019-02-27T07:42:12.747Z,99.90
2019-02-27T07:44:42.285Z,99.90
2019-02-27T07:47:11.425Z,99.90
2019-02-27T07:49:41.596Z,99.90
2019-02-27T07:52:10.904Z,99.90
2019-02-27T07:54:40.132Z,99.90
2019-02-27T07:57:11.144Z,99.90
2019-02-27T07:59:40.883Z,99.90
2019-02-27T08:02:10.424Z,99.90
2019-02-27T08:04:39.664Z,99.90
2019-02-27T08:07:10.089Z,99.90
2019-02-27T08:09:40.761Z,99.90
2019-02-27T08:12:09.856Z,99.90
2019-02-27T08:14:39.345Z,99.90
2019-02-27T08:17:17.271Z,99.90
2019-02-27T08:19:39.375Z,99.90
2019-02-27T08:22:08.813Z,99.90
2019-02-27T08:24:39.537Z,99.90
2019-02-27T08:27:09.692Z,99.90
2019-02-27T08:29:40.656Z,99.90
2019-02-27T08:32:09.989Z,99.90
2019-02-27T08:34:39.672Z,99.90
2019-02-27T08:37:12.479Z,99.90
2019-02-27T08:39:43.421Z,99.90
2019-02-27T08:42:12.673Z,99.90
2019-02-27T08:44:46.672Z,99.90
2019-02-27T08:47:16.316Z,99.90
2019-02-27T08:49:45.660Z,99.60
2019-02-27T08:54:50.255Z,99.90
2019-02-27T08:57:19.708Z,99.90
2019-02-27T09:02:24.249Z,98.20
2019-02-27T09:04:53.397Z,96.60
2019-02-27T09:07:22.516Z,94.00
2019-02-27T09:09:52.384Z,94.30
2019-02-27T09:12:21.761Z,91.20
2019-02-27T09:14:51.720Z,83.40
2019-02-27T09:17:20.913Z,85.50
2019-02-27T09:19:51.514Z,82.90
2019-02-27T09:22:20.622Z,83.10
2019-02-27T09:24:49.741Z,76.90
2019-02-27T09:29:54.741Z,76.20
2019-02-27T09:32:24.544Z,75.60
2019-02-27T09:34:53.544Z,78.00
2019-02-27T09:37:23.051Z,72.10
2019-02-27T09:39:52.204Z,72.90
2019-02-27T09:42:21.439Z,74.60
2019-02-27T09:44:50.872Z,72.50
2019-02-27T09:47:23.245Z,72.30
2019-02-27T09:49:51.509Z,71.00
2019-02-27T09:52:20.672Z,71.10
2019-02-27T09:54:49.752Z,69.60
2019-02-27T09:57:21.601Z,68.60
2019-02-27T09:59:51.174Z,69.40
2019-02-27T10:02:21.952Z,71.00
2019-02-27T10:04:51.203Z,68.90
2019-02-27T10:07:39.799Z,70.30
2019-02-27T10:10:10.422Z,69.20
2019-02-27T10:12:40.176Z,70.50
2019-02-27T10:15:09.272Z,68.40
2019-02-27T10:17:41.076Z,68.10
2019-02-27T10:20:09.337Z,69.60
2019-02-27T10:22:39.306Z,69.70
2019-02-27T10:25:08.711Z,70.30
2019-02-27T10:27:38.680Z,69.30
2019-02-27T10:30:11.478Z,69.50
2019-02-27T10:32:39.900Z,66.80
2019-02-27T10:35:09.236Z,67.00
2019-02-27T10:37:42.183Z,65.30
2019-02-27T10:40:13.064Z,65.60
2019-02-27T10:42:42.160Z,64.80
2019-02-27T10:45:11.352Z,66.20
2019-02-27T10:47:41.247Z,66.10
2019-02-27T10:50:12.517Z,63.20
2019-02-27T10:52:41.727Z,64.70
2019-02-27T10:55:14.169Z,64.80
2019-02-27T10:57:44.816Z,64.60
2019-02-27T11:00:25.163Z,64.60
2019-02-27T11:02:54.092Z,62.40
2019-02-27T11:05:23.605Z,63.20
2019-02-27T11:07:53.502Z,64.20
2019-02-27T11:10:23.373Z,64.60
2019-02-27T11:12:52.569Z,62.70
2019-02-27T11:15:21.741Z,63.20
2019-02-27T11:17:51.316Z,63.70
2019-02-27T11:20:21.759Z,64.80
2019-02-27T11:22:51.412Z,62.10
2019-02-27T11:25:22.547Z,65.00
2019-02-27T11:27:52.297Z,64.00
2019-02-27T11:30:23.848Z,63.20
2019-02-27T11:32:57.031Z,62.80
2019-02-27T11:35:25.178Z,62.50
2019-02-27T11:37:55.210Z,64.60
2019-02-27T11:40:26.148Z,63.50
2019-02-27T11:42:55.539Z,64.50
2019-02-27T11:45:25.248Z,63.00
2019-02-27T11:47:54.433Z,59.70
2019-02-27T11:50:24.175Z,62.40
2019-02-27T11:52:53.709Z,61.50
2019-02-27T11:55:42.037Z,63.00
2019-02-27T11:58:11.839Z,59.80
2019-02-27T12:00:41.205Z,59.00
2019-02-27T12:03:11.183Z,58.50
2019-02-27T12:05:41.468Z,59.90
2019-02-27T12:08:11.426Z,60.10
2019-02-27T12:10:40.687Z,59.50
2019-02-27T12:13:09.809Z,59.80
2019-02-27T12:15:43.297Z,58.50
2019-02-27T12:18:10.195Z,57.80
2019-02-27T12:20:40.267Z,57.90
2019-02-27T12:23:10.121Z,58.20
2019-02-27T12:25:40.002Z,58.20
2019-02-27T12:28:10.578Z,58.10
2019-02-27T12:30:39.796Z,58.50
2019-02-27T12:33:09.551Z,58.20
2019-02-27T12:35:38.676Z,58.20
2019-02-27T12:38:08.526Z,58.30
2019-02-27T12:40:38.143Z,57.90
2019-02-27T12:43:07.648Z,59.40
2019-02-27T12:45:36.725Z,59.50
2019-02-27T12:48:05.898Z,59.60
2019-02-27T12:50:35.156Z,59.10
2019-02-27T12:53:04.572Z,57.20
2019-02-27T12:55:36.259Z,58.20
2019-02-27T12:58:04.577Z,59.50
2019-02-27T13:00:34.205Z,58.50
2019-02-27T13:03:08.435Z,58.40
2019-02-27T13:05:34.466Z,57.00
2019-02-27T13:08:07.081Z,57.50
2019-02-27T13:10:36.228Z,58.70
2019-02-27T13:13:07.140Z,59.40
2019-02-27T13:15:38.364Z,58.10
2019-02-27T13:18:07.541Z,57.20
2019-02-27T13:20:37.078Z,58.30
2019-02-27T13:23:07.711Z,60.30
2019-02-27T13:25:37.152Z,58.40
2019-02-27T13:28:06.967Z,57.40
2019-02-27T13:30:36.152Z,57.40
2019-02-27T13:33:06.331Z,57.70
2019-02-27T13:35:35.429Z,56.40
2019-02-27T13:38:08.120Z,59.20
2019-02-27T13:40:37.368Z,57.70
2019-02-27T13:43:06.445Z,58.40
2019-02-27T13:45:35.663Z,57.90
2019-02-27T13:48:06.074Z,57.90
2019-02-27T13:50:35.365Z,56.20
2019-02-27T13:53:04.467Z,56.30
2019-02-27T13:55:33.553Z,57.50
2019-02-27T13:58:03.895Z,58.50
2019-02-27T14:00:33.350Z,58.40
2019-02-27T14:03:02.904Z,58.80
2019-02-27T14:05:36.057Z,58.70
2019-02-27T14:08:23.513Z,60.80
2019-02-27T14:10:54.025Z,59.10
2019-02-27T14:13:23.435Z,60.80
2019-02-27T14:15:52.646Z,60.50
2019-02-27T14:18:22.171Z,59.90
2019-02-27T14:20:51.421Z,58.50
2019-02-27T14:23:21.188Z,58.60
2019-02-27T14:25:50.848Z,59.80
2019-02-27T14:28:21.002Z,60.10
2019-02-27T14:30:51.809Z,60.40
2019-02-27T14:33:21.890Z,60.50
2019-02-27T14:35:51.175Z,60.00
2019-02-27T14:38:21.872Z,60.10
2019-02-27T14:40:52.248Z,60.10
2019-02-27T14:43:21.392Z,61.00
2019-02-27T14:45:51.323Z,63.20
2019-02-27T14:48:21.574Z,62.40
2019-02-27T14:50:51.442Z,61.10
2019-02-27T14:53:20.941Z,60.30
2019-02-27T14:55:50.257Z,60.90
2019-02-27T14:58:24.065Z,61.10
2019-02-27T15:00:50.848Z,61.60
2019-02-27T15:03:20.008Z,60.70
2019-02-27T15:05:49.946Z,61.10
2019-02-27T15:08:19.126Z,61.20
2019-02-27T15:10:48.332Z,60.80
2019-02-27T15:13:17.660Z,62.30
2019-02-27T15:15:46.836Z,62.30
2019-02-27T15:18:17.811Z,61.50
2019-02-27T15:20:46.920Z,61.10
2019-02-27T15:23:17.193Z,60.80
2019-02-27T15:25:46.277Z,61.00
2019-02-27T15:28:17.296Z,60.20
2019-02-27T15:30:47.294Z,59.80
2019-02-27T15:33:17.156Z,60.00
2019-02-27T15:35:46.353Z,60.00
2019-02-27T15:38:15.473Z,58.90
2019-02-27T15:40:44.588Z,61.40
2019-02-27T15:43:16.985Z,62.70
2019-02-27T15:45:47.935Z,61.90
2019-02-27T15:48:16.352Z,60.00
2019-02-27T15:50:45.841Z,61.80
2019-02-27T15:53:16.338Z,62.90
2019-02-27T15:55:45.881Z,63.40
2019-02-27T15:58:16.328Z,65.20
2019-02-27T16:00:45.434Z,63.30
2019-02-27T16:03:14.885Z,65.40
2019-02-27T16:05:44.121Z,61.60
2019-02-27T16:08:15.296Z,62.90
2019-02-27T16:10:54.351Z,61.30
2019-02-27T16:13:15.608Z,62.80
2019-02-27T16:15:45.237Z,63.30
2019-02-27T16:18:15.092Z,62.70
2019-02-27T16:20:47.073Z,64.60
2019-02-27T16:23:16.911Z,65.50
2019-02-27T16:25:46.385Z,66.50
2019-02-27T16:28:16.640Z,67.80
2019-02-27T16:30:45.957Z,67.30
2019-02-27T16:33:15.895Z,68.40
2019-02-27T16:35:46.399Z,68.40
2019-02-27T16:38:15.671Z,68.80
2019-02-27T16:40:45.180Z,69.10
2019-02-27T16:43:14.973Z,69.20
2019-02-27T16:45:44.600Z,69.50
2019-02-27T16:48:13.904Z,70.90
2019-02-27T16:50:45.078Z,71.80
2019-02-27T16:53:18.626Z,72.40
2019-02-27T16:55:45.675Z,70.80
2019-02-27T16:58:14.842Z,69.60
2019-02-27T17:00:45.462Z,68.00
2019-02-27T17:03:14.609Z,67.80
2019-02-27T17:05:43.928Z,69.10
2019-02-27T17:08:13.324Z,68.40
2019-02-27T17:10:42.437Z,70.10
2019-02-27T17:13:14.396Z,70.80
2019-02-27T17:15:42.484Z,72.10
2019-02-27T17:18:12.869Z,73.30
2019-02-27T17:20:46.609Z,75.40
2019-02-27T17:23:16.486Z,79.20
2019-02-27T17:25:45.884Z,80.30
2019-02-27T17:28:15.068Z,81.00
2019-02-27T17:30:44.294Z,81.70
2019-02-27T17:33:15.764Z,83.20
2019-02-27T17:35:45.747Z,83.30
2019-02-27T17:38:15.242Z,84.50
2019-02-27T17:40:44.354Z,88.00
2019-02-27T17:43:13.576Z,87.90
2019-02-27T17:45:44.325Z,90.00
2019-02-27T17:48:13.968Z,90.10
2019-02-27T17:50:43.437Z,90.60
2019-02-27T17:53:12.736Z,91.70
2019-02-27T17:55:42.621Z,91.40
2019-02-27T17:58:11.821Z,92.60
2019-02-27T18:00:59.124Z,92.80
2019-02-27T18:03:28.648Z,93.50
2019-02-27T18:06:00.205Z,93.90
2019-02-27T18:08:29.381Z,94.50
2019-02-27T18:10:58.812Z,94.60
2019-02-27T18:13:28.482Z,93.80
2019-02-27T18:15:57.719Z,94.20
2019-02-27T18:18:27.389Z,94.20
2019-02-27T18:20:59.519Z,96.20
2019-02-27T18:23:28.209Z,95.30
2019-02-27T18:25:57.372Z,95.80
2019-02-27T18:28:26.484Z,97.20
2019-02-27T18:30:55.597Z,97.40
2019-02-27T18:33:24.731Z,99.30
2019-02-27T18:35:54.634Z,99.10
2019-02-27T18:38:27.601Z,99.90
2019-02-27T18:40:54.690Z,99.90
2019-02-27T18:43:23.676Z,99.90
2019-02-27T18:45:53.244Z,99.90
2019-02-27T18:48:22.338Z,99.90
2019-02-27T18:50:51.884Z,99.90
2019-02-27T18:53:21.038Z,99.90
2019-02-27T18:55:50.908Z,99.90
2019-02-27T18:58:20.946Z,99.90
2019-02-27T19:00:50.652Z,99.90
2019-02-27T19:03:19.732Z,99.90
2019-02-27T19:05:48.976Z,99.90
2019-02-27T19:08:18.462Z,99.90
2019-02-27T19:10:47.624Z,99.90
2019-02-27T19:13:16.936Z,99.90
2019-02-27T19:15:46.528Z,99.90
2019-02-27T19:18:15.799Z,99.90
2019-02-27T19:20:45.292Z,99.90
2019-02-27T19:23:17.810Z,99.90
2019-02-27T19:25:48.095Z,99.90
2019-02-27T19:28:17.178Z,99.90
2019-02-27T19:30:46.496Z,99.90
2019-02-27T19:33:15.912Z,99.90
2019-02-27T19:35:45.100Z,99.90
2019-02-27T19:38:14.292Z,99.90
2019-02-27T19:40:43.467Z,99.90
2019-02-27T19:43:13.109Z,99.90
2019-02-27T19:45:43.068Z,99.90
2019-02-27T19:48:14.044Z,99.90
2019-02-27T19:50:46.296Z,99.90
2019-02-27T19:53:14.079Z,99.90
2019-02-27T19:55:43.291Z,99.90
2019-02-27T19:58:17.255Z,99.90
2019-02-27T20:00:48.527Z,99.90
2019-02-27T20:03:15.053Z,99.90
2019-02-27T20:05:45.158Z,99.90
2019-02-27T20:08:14.765Z,99.90
2019-02-27T20:10:44.395Z,99.90
2019-02-27T20:13:15.234Z,99.90
2019-02-27T20:15:45.761Z,99.90
2019-02-27T20:18:16.276Z,99.90
2019-02-27T20:20:45.788Z,99.90
2019-02-27T20:23:15.700Z,99.90
2019-02-27T20:25:45.705Z,99.90
2019-02-27T20:28:15.112Z,99.90
2019-02-27T20:30:44.741Z,99.90
2019-02-27T20:33:14.381Z,99.90
2019-02-27T20:35:43.452Z,99.90
2019-02-27T20:38:15.964Z,99.90
2019-02-27T20:40:46.441Z,99.90
2019-02-27T20:43:16.897Z,99.90
2019-02-27T20:45:46.937Z,99.90
2019-02-27T20:48:17.401Z,99.90
2019-02-27T20:50:46.820Z,99.90
2019-02-27T20:53:15.929Z,99.90
2019-02-27T20:55:45.031Z,99.90
2019-02-27T20:58:17.411Z,99.90
2019-02-27T21:00:46.845Z,99.90
2019-02-27T21:03:17.645Z,99.90
2019-02-27T21:05:48.626Z,99.90
2019-02-27T21:08:18.160Z,99.90
2019-02-27T21:10:47.868Z,99.90
2019-02-27T21:13:17.388Z,99.90
2019-02-27T21:15:46.568Z,99.90
2019-02-27T21:18:16.410Z,99.90
2019-02-27T21:20:46.227Z,99.90
2019-02-27T21:23:17.328Z,99.90
2019-02-27T21:25:49.190Z,99.90
2019-02-27T21:28:32.453Z,99.90
2019-02-27T21:31:02.437Z,99.90
2019-02-27T21:33:31.677Z,99.90
2019-02-27T21:36:03.348Z,99.90
2019-02-27T21:38:31.640Z,99.90
2019-02-27T21:41:04.528Z,99.90
2019-02-27T21:43:34.067Z,99.90
2019-02-27T21:46:03.400Z,99.90
2019-02-27T21:48:32.560Z,99.90
2019-02-27T21:51:01.740Z,99.90
2019-02-27T21:53:30.851Z,99.90
2019-02-27T21:56:00.200Z,99.90
2019-02-27T21:58:32.824Z,99.90
2019-02-27T22:01:02.550Z,99.90
2019-02-27T22:03:32.077Z,99.90
2019-02-27T22:06:01.370Z,99.90
2019-02-27T22:08:30.811Z,99.90
2019-02-27T22:10:59.970Z,99.90
2019-02-27T22:13:32.198Z,99.90
2019-02-27T22:16:00.136Z,99.90
2019-02-27T22:18:29.514Z,99.90
2019-02-27T22:20:59.696Z,99.90
2019-02-27T22:23:29.412Z,99.90
2019-02-27T22:26:03.064Z,99.90
2019-02-27T22:28:31.001Z,99.90
2019-02-27T22:31:03.331Z,99.90
2019-02-27T22:33:32.376Z,99.90
2019-02-27T22:36:02.021Z,99.90
2019-02-27T22:38:31.037Z,99.90
2019-02-27T22:41:00.577Z,99.90
2019-02-27T22:43:30.143Z,99.90
2019-02-27T22:45:59.492Z,99.90
2019-02-27T22:48:28.827Z,99.90
2019-02-27T22:50:58.300Z,99.90
2019-02-27T22:53:29.348Z,99.90
2019-02-27T22:55:59.253Z,99.90
2019-02-27T22:58:28.365Z,99.90
2019-02-27T23:01:10.622Z,99.90
2019-02-27T23:03:42.904Z,99.90
2019-02-27T23:06:13.904Z,99.90
2019-02-27T23:08:43.828Z,99.90
2019-02-27T23:11:13.373Z,99.90
2019-02-27T23:13:47.542Z,99.90
2019-02-27T23:16:17.140Z,99.90
2019-02-27T23:18:46.416Z,99.90
2019-02-27T23:21:16.748Z,99.90
2019-02-27T23:23:45.841Z,99.90
2019-02-27T23:26:20.196Z,99.90
2019-02-27T23:28:50.720Z,99.90
2019-02-27T23:31:23.390Z,99.90
2019-02-27T23:33:50.771Z,99.90
2019-02-27T23:36:22.103Z,99.90
2019-02-27T23:38:51.172Z,99.90
2019-02-27T23:41:23.319Z,99.90
2019-02-27T23:43:51.580Z,99.90
2019-02-27T23:46:21.013Z,99.90
2019-02-27T23:48:50.174Z,99.90
2019-02-27T23:51:19.296Z,99.90
2019-02-27T23:53:48.324Z,99.90
2019-02-27T23:56:20.664Z,99.90
2019-02-27T23:58:49.812Z,99.90
